createdAt,value
2019-05-19T00:00:14.706Z,0
2019-05-19T00:01:33.126Z,0
2019-05-19T00:02:25.411Z,0
2019-05-19T00:02:51.567Z,0
2019-05-19T00:03:17.732Z,0
2019-05-19T00:04:10.034Z,0
2019-05-19T00:05:28.457Z,0
2019-05-19T00:06:20.742Z,0
2019-05-19T00:06:46.884Z,0
2019-05-19T00:07:39.224Z,0
2019-05-19T00:08:31.507Z,0
2019-05-19T00:08:57.641Z,0
2019-05-19T00:09:49.972Z,0
2019-05-19T00:11:08.510Z,0
2019-05-19T00:12:00.859Z,0
2019-05-19T00:12:27.004Z,0
2019-05-19T00:13:19.333Z,0
2019-05-19T00:14:37.811Z,0
2019-05-19T00:15:30.133Z,0
2019-05-19T00:16:48.605Z,0
2019-05-19T00:17:40.957Z,0
2019-05-19T00:18:07.190Z,0
2019-05-19T00:18:59.463Z,0
2019-05-19T00:20:18.004Z,0
2019-05-19T00:21:10.321Z,0
2019-05-19T00:21:36.480Z,0
2019-05-19T00:22:28.785Z,0
2019-05-19T00:23:21.128Z,0
2019-05-19T00:23:47.271Z,0
2019-05-19T00:24:40.544Z,0
2019-05-19T00:25:06.676Z,0
2019-05-19T00:25:59.005Z,0
2019-05-19T00:26:51.322Z,0
2019-05-19T00:27:17.467Z,0
2019-05-19T00:28:09.756Z,0
2019-05-19T00:29:28.222Z,0
2019-05-19T00:30:20.532Z,0
2019-05-19T00:30:46.698Z,0
2019-05-19T00:31:38.990Z,0
2019-05-19T00:32:31.334Z,0
2019-05-19T00:32:57.499Z,0
2019-05-19T00:33:49.819Z,0
2019-05-19T00:35:08.246Z,0
2019-05-19T00:36:00.601Z,0
2019-05-19T00:36:26.736Z,0
2019-05-19T00:37:19.033Z,0
2019-05-19T00:38:11.316Z,0
2019-05-19T00:38:37.453Z,0
2019-05-19T00:39:29.775Z,0
2019-05-19T00:40:48.226Z,0
2019-05-19T00:41:40.538Z,0
2019-05-19T00:42:06.717Z,0
2019-05-19T00:42:58.995Z,0
2019-05-19T00:43:51.285Z,0
2019-05-19T00:44:17.444Z,0
2019-05-19T00:45:09.770Z,0
2019-05-19T00:46:28.234Z,0
2019-05-19T00:47:20.522Z,0
2019-05-19T00:47:46.663Z,0
2019-05-19T00:48:38.952Z,0
2019-05-19T00:49:40.832Z,0
2019-05-19T00:49:58.410Z,0
2019-05-19T00:50:50.701Z,0
2019-05-19T00:51:16.871Z,0
2019-05-19T00:52:09.190Z,0
2019-05-19T00:53:01.545Z,0
2019-05-19T00:53:27.731Z,0
2019-05-19T00:54:20.027Z,0
2019-05-19T00:55:38.483Z,0
2019-05-19T00:56:30.787Z,0
2019-05-19T00:56:56.932Z,0
2019-05-19T00:57:49.225Z,0
2019-05-19T00:58:41.572Z,0
2019-05-19T00:59:07.726Z,0
2019-05-19T01:00:00.055Z,0
2019-05-19T01:01:18.512Z,0
2019-05-19T01:02:10.829Z,0
2019-05-19T01:02:36.997Z,0
2019-05-19T01:03:29.328Z,0
2019-05-19T01:04:47.814Z,0
2019-05-19T01:05:41.092Z,0
2019-05-19T01:06:07.231Z,0
2019-05-19T01:06:59.561Z,0
2019-05-19T01:08:18.038Z,0
2019-05-19T01:09:10.353Z,0
2019-05-19T01:09:36.507Z,0
2019-05-19T01:10:28.854Z,0
2019-05-19T01:11:21.195Z,0
2019-05-19T01:11:47.329Z,0
2019-05-19T01:12:39.668Z,0
2019-05-19T01:13:58.152Z,0
2019-05-19T01:14:50.453Z,0
2019-05-19T01:15:16.612Z,0
2019-05-19T01:16:08.966Z,0
2019-05-19T01:17:01.285Z,0
2019-05-19T01:17:27.425Z,0
2019-05-19T01:18:19.734Z,0
2019-05-19T01:19:38.238Z,0
2019-05-19T01:20:31.512Z,0
2019-05-19T01:20:57.649Z,0
2019-05-19T01:21:49.938Z,0
2019-05-19T01:23:08.452Z,0
2019-05-19T01:24:00.773Z,0
2019-05-19T01:24:26.913Z,0
2019-05-19T01:25:19.262Z,0
2019-05-19T01:26:37.730Z,0
2019-05-19T01:27:30.019Z,0
2019-05-19T01:28:48.492Z,0
2019-05-19T01:29:40.789Z,0
2019-05-19T01:30:06.925Z,0
2019-05-19T01:30:59.217Z,0
2019-05-19T01:31:51.534Z,0
2019-05-19T01:32:17.672Z,0
2019-05-19T01:33:09.955Z,0
2019-05-19T01:34:28.400Z,0
2019-05-19T01:35:20.712Z,0
2019-05-19T01:35:46.843Z,0
2019-05-19T01:36:39.165Z,0
2019-05-19T01:37:31.511Z,0
2019-05-19T01:37:57.701Z,0
2019-05-19T01:38:50.037Z,0
2019-05-19T01:40:08.576Z,0
2019-05-19T01:41:00.870Z,0
2019-05-19T01:41:27.019Z,0
2019-05-19T01:42:19.379Z,0
2019-05-19T01:43:37.810Z,0
2019-05-19T01:44:30.123Z,0
2019-05-19T01:45:48.578Z,0
2019-05-19T01:46:40.917Z,0
2019-05-19T01:47:07.057Z,0
2019-05-19T01:47:59.364Z,0
2019-05-19T01:49:17.849Z,0
2019-05-19T01:50:18.807Z,0
2019-05-19T01:50:39.273Z,0
2019-05-19T01:51:57.748Z,0
2019-05-19T01:52:50.187Z,0
2019-05-19T01:54:08.612Z,0
2019-05-19T01:55:00.965Z,0
2019-05-19T01:55:27.100Z,0
2019-05-19T01:56:19.390Z,0
2019-05-19T01:57:37.887Z,0
2019-05-19T01:58:30.175Z,0
2019-05-19T01:59:48.656Z,0
2019-05-19T02:00:40.953Z,0
2019-05-19T02:01:07.094Z,0
2019-05-19T02:01:59.378Z,0
2019-05-19T02:03:17.910Z,0
2019-05-19T02:04:10.198Z,0
2019-05-19T02:05:28.666Z,0
2019-05-19T02:06:20.962Z,0
2019-05-19T02:06:47.099Z,0
2019-05-19T02:07:39.433Z,0
2019-05-19T02:08:57.919Z,0
2019-05-19T02:09:50.230Z,0
2019-05-19T02:10:16.366Z,0
2019-05-19T02:11:08.680Z,0
2019-05-19T02:12:01.006Z,0
2019-05-19T02:12:27.203Z,0
2019-05-19T02:13:19.546Z,0
2019-05-19T02:14:37.974Z,0
2019-05-19T02:15:30.316Z,0
2019-05-19T02:15:56.455Z,0
2019-05-19T02:16:48.776Z,0
2019-05-19T02:17:41.087Z,0
2019-05-19T02:18:07.229Z,0
2019-05-19T02:18:59.508Z,0
2019-05-19T02:20:31.928Z,0
2019-05-19T02:21:38.423Z,0
2019-05-19T02:22:30.769Z,0
2019-05-19T02:22:56.911Z,0
2019-05-19T02:23:49.232Z,0
2019-05-19T02:24:41.566Z,0
2019-05-19T02:25:07.724Z,0
2019-05-19T02:26:00.015Z,0
2019-05-19T02:27:18.471Z,0
2019-05-19T02:28:10.855Z,0
2019-05-19T02:28:37.018Z,0
2019-05-19T02:29:29.331Z,0
2019-05-19T02:30:47.857Z,0
2019-05-19T02:31:40.190Z,0
2019-05-19T02:32:06.356Z,0
2019-05-19T02:32:58.710Z,0
2019-05-19T02:33:51.072Z,0
2019-05-19T02:34:17.249Z,0
2019-05-19T02:35:09.596Z,0
2019-05-19T02:36:28.141Z,0
2019-05-19T02:37:20.428Z,0
2019-05-19T02:37:46.596Z,0
2019-05-19T02:38:38.932Z,0
2019-05-19T02:39:31.274Z,0
2019-05-19T02:39:57.417Z,0
2019-05-19T02:40:49.761Z,0
2019-05-19T02:42:08.251Z,0
2019-05-19T02:43:00.564Z,0
2019-05-19T02:43:26.698Z,0
2019-05-19T02:44:19.077Z,0
2019-05-19T02:45:11.398Z,0
2019-05-19T02:45:37.517Z,0
2019-05-19T02:46:29.868Z,0
2019-05-19T02:47:48.370Z,0
2019-05-19T02:48:40.780Z,0
2019-05-19T02:49:06.970Z,0
2019-05-19T02:49:59.288Z,4
2019-05-19T02:51:19.697Z,4
2019-05-19T02:52:38.216Z,0
2019-05-19T02:53:30.553Z,4
2019-05-19T02:53:56.729Z,4
2019-05-19T02:54:49.083Z,4
2019-05-19T02:55:41.453Z,4
2019-05-19T02:56:07.588Z,4
2019-05-19T02:56:59.880Z,4
2019-05-19T02:58:18.380Z,8
2019-05-19T02:59:10.666Z,4
2019-05-19T02:59:36.837Z,8
2019-05-19T03:00:29.194Z,8
2019-05-19T03:01:21.480Z,8
2019-05-19T03:01:47.643Z,8
2019-05-19T03:02:40.059Z,8
2019-05-19T03:03:58.485Z,12
2019-05-19T03:04:50.804Z,12
2019-05-19T03:05:16.993Z,12
2019-05-19T03:06:09.351Z,16
2019-05-19T03:07:27.780Z,20
2019-05-19T03:08:20.063Z,20
2019-05-19T03:09:38.516Z,24
2019-05-19T03:10:30.853Z,28
2019-05-19T03:10:56.997Z,28
2019-05-19T03:11:49.285Z,32
2019-05-19T03:13:07.794Z,40
2019-05-19T03:14:00.132Z,44
2019-05-19T03:15:18.605Z,52
2019-05-19T03:16:10.912Z,56
2019-05-19T03:16:37.075Z,60
2019-05-19T03:17:29.396Z,68
2019-05-19T03:18:47.875Z,80
2019-05-19T03:19:40.206Z,88
2019-05-19T03:20:06.351Z,92
2019-05-19T03:21:10.250Z,100
2019-05-19T03:22:18.187Z,116
2019-05-19T03:23:10.547Z,124
2019-05-19T03:23:36.682Z,128
2019-05-19T03:24:29.102Z,140
2019-05-19T03:25:21.431Z,148
2019-05-19T03:25:47.631Z,156
2019-05-19T03:26:39.981Z,168
2019-05-19T03:27:58.476Z,188
2019-05-19T03:28:50.791Z,200
2019-05-19T03:29:16.984Z,208
2019-05-19T03:30:09.325Z,220
2019-05-19T03:31:27.857Z,240
2019-05-19T03:32:21.194Z,252
2019-05-19T03:32:47.406Z,260
2019-05-19T03:33:39.721Z,280
2019-05-19T03:34:58.338Z,308
2019-05-19T03:35:50.758Z,328
2019-05-19T03:36:16.898Z,336
2019-05-19T03:37:09.219Z,356
2019-05-19T03:38:01.563Z,376
2019-05-19T03:38:27.729Z,388
2019-05-19T03:39:20.118Z,408
2019-05-19T03:40:38.595Z,448
2019-05-19T03:41:30.905Z,472
2019-05-19T03:41:57.047Z,492
2019-05-19T03:42:49.375Z,520
2019-05-19T03:44:07.898Z,564
2019-05-19T03:45:00.257Z,596
2019-05-19T03:45:26.415Z,608
2019-05-19T03:46:18.735Z,644
2019-05-19T03:47:11.071Z,680
2019-05-19T03:47:37.234Z,696
2019-05-19T03:48:29.547Z,744
2019-05-19T03:49:48.030Z,808
2019-05-19T03:50:40.318Z,856
2019-05-19T03:51:06.523Z,888
2019-05-19T03:51:59.785Z,940
2019-05-19T03:53:18.331Z,1036
2019-05-19T03:54:10.766Z,1100
2019-05-19T03:54:36.968Z,1136
2019-05-19T03:55:29.356Z,1192
2019-05-19T03:56:47.847Z,1280
2019-05-19T03:57:40.159Z,1340
2019-05-19T03:58:58.693Z,1424
2019-05-19T03:59:51.038Z,1480
2019-05-19T04:00:17.242Z,1508
2019-05-19T04:01:09.518Z,1560
2019-05-19T04:02:27.974Z,1644
2019-05-19T04:03:20.307Z,1704
2019-05-19T04:03:46.535Z,1732
2019-05-19T04:04:38.965Z,1804
2019-05-19T04:05:31.282Z,1876
2019-05-19T04:05:57.474Z,1908
2019-05-19T04:06:49.807Z,1984
2019-05-19T04:08:08.300Z,2084
2019-05-19T04:09:00.594Z,2140
2019-05-19T04:09:26.720Z,2164
2019-05-19T04:10:19.079Z,2212
2019-05-19T04:11:11.402Z,2244
2019-05-19T04:11:37.570Z,2264
2019-05-19T04:12:29.853Z,2300
2019-05-19T04:13:48.332Z,2348
2019-05-19T04:14:40.644Z,2380
2019-05-19T04:15:06.805Z,2396
2019-05-19T04:15:59.119Z,2424
2019-05-19T04:16:51.414Z,2448
2019-05-19T04:17:17.577Z,2456
2019-05-19T04:18:09.896Z,2472
2019-05-19T04:19:28.431Z,2508
2019-05-19T04:20:20.784Z,2532
2019-05-19T04:20:46.917Z,2548
2019-05-19T04:21:48.544Z,2580
2019-05-19T04:22:06.378Z,2596
2019-05-19T04:22:58.695Z,2636
2019-05-19T04:23:51.024Z,2680
2019-05-19T04:24:17.178Z,2704
2019-05-19T04:25:09.472Z,2760
2019-05-19T04:26:27.981Z,2856
2019-05-19T04:27:20.299Z,2936
2019-05-19T04:27:46.435Z,2980
2019-05-19T04:28:38.824Z,3076
2019-05-19T04:29:31.144Z,3172
2019-05-19T04:29:58.308Z,3232
2019-05-19T04:30:50.622Z,3340
2019-05-19T04:31:16.777Z,3392
2019-05-19T04:32:09.075Z,3500
2019-05-19T04:33:01.361Z,3620
2019-05-19T04:33:27.499Z,3684
2019-05-19T04:34:19.819Z,3820
2019-05-19T04:35:38.348Z,4024
2019-05-19T04:36:30.674Z,4164
2019-05-19T04:36:56.807Z,4232
2019-05-19T04:37:49.154Z,4360
2019-05-19T04:38:41.490Z,4476
2019-05-19T04:39:07.648Z,4532
2019-05-19T04:40:00.016Z,4636
2019-05-19T04:41:18.515Z,4788
2019-05-19T04:42:38.021Z,4920
2019-05-19T04:43:30.351Z,4984
2019-05-19T04:43:56.527Z,5004
2019-05-19T04:44:48.899Z,5036
2019-05-19T04:45:41.567Z,5068
2019-05-19T04:46:07.763Z,5104
2019-05-19T04:47:00.169Z,5188
2019-05-19T04:47:26.360Z,5232
2019-05-19T04:48:19.668Z,5292
2019-05-19T04:49:38.200Z,5452
2019-05-19T04:50:30.626Z,5584
2019-05-19T04:50:56.775Z,5620
2019-05-19T04:52:05.386Z,5612
2019-05-19T04:52:17.295Z,5620
2019-05-19T04:53:09.623Z,5640
2019-05-19T04:54:29.461Z,5760
2019-05-19T04:55:48.229Z,5900
2019-05-19T04:56:40.966Z,6016
2019-05-19T04:57:07.206Z,6080
2019-05-19T04:57:59.493Z,6208
2019-05-19T04:59:18.023Z,6384
2019-05-19T05:00:10.413Z,6464
2019-05-19T05:00:36.637Z,6500
2019-05-19T05:01:28.955Z,6544
2019-05-19T05:02:21.295Z,6644
2019-05-19T05:02:47.474Z,6692
2019-05-19T05:03:39.784Z,6816
2019-05-19T05:04:59.298Z,7020
2019-05-19T05:06:17.807Z,7224
2019-05-19T05:07:10.106Z,7348
2019-05-19T05:08:30.696Z,7540
2019-05-19T05:09:20.992Z,7680
2019-05-19T05:09:47.178Z,7744
2019-05-19T05:10:39.499Z,7864
2019-05-19T05:11:57.981Z,8012
2019-05-19T05:12:50.283Z,8100
2019-05-19T05:13:16.454Z,8136
2019-05-19T05:14:08.750Z,8200
2019-05-19T05:15:01.071Z,8280
2019-05-19T05:15:27.225Z,8340
2019-05-19T05:16:19.555Z,8448
2019-05-19T05:17:38.039Z,8660
2019-05-19T05:18:30.346Z,8820
2019-05-19T05:18:56.485Z,8900
2019-05-19T05:19:48.790Z,9120
2019-05-19T05:20:41.136Z,9384
2019-05-19T05:21:07.306Z,9496
2019-05-19T05:21:59.663Z,9700
2019-05-19T05:22:26.808Z,9788
2019-05-19T05:23:19.110Z,9904
2019-05-19T05:24:11.398Z,10032
2019-05-19T05:24:38.613Z,10104
2019-05-19T05:25:30.899Z,10312
2019-05-19T05:25:57.065Z,10412
2019-05-19T05:26:49.403Z,10620
2019-05-19T05:28:07.839Z,11056
2019-05-19T05:29:00.162Z,11384
2019-05-19T05:30:18.620Z,11392
2019-05-19T05:31:10.948Z,11376
2019-05-19T05:31:37.115Z,11320
2019-05-19T05:32:29.410Z,11240
2019-05-19T05:33:47.931Z,11264
2019-05-19T05:34:40.214Z,11376
2019-05-19T05:35:06.354Z,11444
2019-05-19T05:35:58.650Z,11560
2019-05-19T05:36:50.966Z,11708
2019-05-19T05:37:17.116Z,11780
2019-05-19T05:38:09.482Z,11892
2019-05-19T05:39:27.934Z,11992
2019-05-19T05:40:20.293Z,12068
2019-05-19T05:40:46.447Z,12112
2019-05-19T05:41:38.729Z,12204
2019-05-19T05:42:31.817Z,12240
2019-05-19T05:42:58.174Z,12216
2019-05-19T05:43:50.491Z,12132
2019-05-19T05:44:16.626Z,12104
2019-05-19T05:45:08.924Z,12088
2019-05-19T05:46:01.266Z,12196
2019-05-19T05:46:27.406Z,12280
2019-05-19T05:47:19.689Z,12500
2019-05-19T05:48:38.125Z,12760
2019-05-19T05:49:30.420Z,12768
2019-05-19T05:49:56.562Z,12736
2019-05-19T05:50:48.861Z,12716
2019-05-19T05:51:41.205Z,12696
2019-05-19T05:52:07.353Z,12692
2019-05-19T05:52:59.711Z,12696
2019-05-19T05:54:18.144Z,12792
2019-05-19T05:55:10.439Z,12840
2019-05-19T05:55:36.610Z,12876
2019-05-19T05:56:28.959Z,12968
2019-05-19T05:57:21.274Z,12980
2019-05-19T05:57:47.542Z,12976
2019-05-19T05:58:39.856Z,13024
2019-05-19T05:59:58.306Z,13212
2019-05-19T06:00:50.666Z,13352
2019-05-19T06:01:16.825Z,13468
2019-05-19T06:02:09.120Z,13728
2019-05-19T06:03:01.443Z,13892
2019-05-19T06:03:27.572Z,13944
2019-05-19T06:04:19.868Z,14060
2019-05-19T06:05:38.358Z,14252
2019-05-19T06:06:30.652Z,14368
2019-05-19T06:06:56.787Z,14412
2019-05-19T06:07:49.122Z,14392
2019-05-19T06:08:41.409Z,14456
2019-05-19T06:09:07.549Z,14484
2019-05-19T06:09:59.838Z,14536
2019-05-19T06:11:18.334Z,14708
2019-05-19T06:12:10.662Z,14876
2019-05-19T06:12:36.804Z,14972
2019-05-19T06:13:29.135Z,15244
2019-05-19T06:14:21.498Z,15520
2019-05-19T06:14:47.662Z,15668
2019-05-19T06:15:39.975Z,15976
2019-05-19T06:16:58.481Z,16396
2019-05-19T06:17:50.830Z,16644
2019-05-19T06:18:16.990Z,16776
2019-05-19T06:19:09.322Z,17052
2019-05-19T06:20:27.851Z,17376
2019-05-19T06:21:20.142Z,17376
2019-05-19T06:22:53.075Z,17440
2019-05-19T06:23:58.133Z,17728
2019-05-19T06:24:50.431Z,18016
2019-05-19T06:25:16.577Z,18176
2019-05-19T06:26:09.009Z,18432
2019-05-19T06:27:01.346Z,18528
2019-05-19T06:27:27.484Z,18560
2019-05-19T06:28:19.779Z,18688
2019-05-19T06:29:38.255Z,19072
2019-05-19T06:30:30.586Z,19136
2019-05-19T06:30:56.775Z,19168
2019-05-19T06:31:49.090Z,19232
2019-05-19T06:32:41.393Z,19200
2019-05-19T06:33:07.563Z,19200
2019-05-19T06:33:59.867Z,19296
2019-05-19T06:35:18.332Z,19392
2019-05-19T06:36:10.659Z,19200
2019-05-19T06:36:36.801Z,19104
2019-05-19T06:37:29.137Z,19072
2019-05-19T06:38:21.430Z,18944
2019-05-19T06:38:47.622Z,18816
2019-05-19T06:39:39.978Z,18560
2019-05-19T06:40:58.429Z,18464
2019-05-19T06:41:50.758Z,18432
2019-05-19T06:42:16.917Z,18368
2019-05-19T06:43:09.212Z,18144
2019-05-19T06:44:03.400Z,17760
2019-05-19T06:44:28.682Z,17760
2019-05-19T06:45:20.989Z,17952
2019-05-19T06:45:47.146Z,17984
2019-05-19T06:46:39.450Z,17984
2019-05-19T06:47:57.933Z,18528
2019-05-19T06:48:50.301Z,19488
2019-05-19T06:49:16.438Z,20576
2019-05-19T06:50:08.783Z,25216
2019-05-19T06:51:01.214Z,29056
2019-05-19T06:51:27.299Z,28928
2019-05-19T06:52:19.600Z,25632
2019-05-19T06:53:39.097Z,25248
2019-05-19T06:54:31.427Z,30240
2019-05-19T06:54:57.609Z,30592
2019-05-19T06:55:49.999Z,29408
2019-05-19T06:57:08.551Z,28512
2019-05-19T06:58:00.788Z,29504
2019-05-19T06:58:26.928Z,30560
2019-05-19T06:59:19.236Z,34464
2019-05-19T07:00:11.526Z,38944
2019-05-19T07:00:37.671Z,36768
2019-05-19T07:01:30.110Z,34432
2019-05-19T07:02:48.622Z,35232
2019-05-19T07:03:40.914Z,36384
2019-05-19T07:04:07.054Z,36864
2019-05-19T07:04:59.346Z,31200
2019-05-19T07:06:17.861Z,29536
2019-05-19T07:07:10.319Z,30080
2019-05-19T07:07:36.511Z,30752
2019-05-19T07:08:28.887Z,27616
2019-05-19T07:09:21.155Z,23776
2019-05-19T07:09:57.735Z,22944
2019-05-19T07:10:40.834Z,20448
2019-05-19T07:11:07.009Z,20000
2019-05-19T07:11:59.360Z,19072
2019-05-19T07:13:17.956Z,18848
2019-05-19T07:14:10.286Z,18752
2019-05-19T07:14:36.427Z,18400
2019-05-19T07:15:28.760Z,18304
2019-05-19T07:16:21.123Z,18304
2019-05-19T07:16:47.262Z,18400
2019-05-19T07:17:39.666Z,18592
2019-05-19T07:18:58.148Z,18976
2019-05-19T07:19:50.504Z,19392
2019-05-19T07:20:16.643Z,19712
2019-05-19T07:21:08.937Z,20352
2019-05-19T07:22:01.296Z,21504
2019-05-19T07:22:27.496Z,22688
2019-05-19T07:23:27.602Z,24064
2019-05-19T07:23:46.954Z,25312
2019-05-19T07:24:39.243Z,25888
2019-05-19T07:25:31.564Z,24192
2019-05-19T07:25:57.736Z,24992
2019-05-19T07:26:50.051Z,27680
2019-05-19T07:28:08.555Z,32928
2019-05-19T07:29:00.944Z,29952
2019-05-19T07:29:27.084Z,29248
2019-05-19T07:30:19.408Z,27648
2019-05-19T07:31:37.937Z,30464
2019-05-19T07:32:30.275Z,28768
2019-05-19T07:32:56.593Z,28576
2019-05-19T07:33:48.899Z,25664
2019-05-19T07:34:41.231Z,23680
2019-05-19T07:35:07.369Z,23520
2019-05-19T07:35:59.685Z,22656
2019-05-19T07:37:18.199Z,23680
2019-05-19T07:38:10.557Z,24192
2019-05-19T07:38:36.760Z,25152
2019-05-19T07:39:29.125Z,38304
2019-05-19T07:40:21.538Z,40064
2019-05-19T07:40:47.715Z,35776
2019-05-19T07:41:40.280Z,29408
2019-05-19T07:42:06.414Z,28640
2019-05-19T07:42:58.766Z,24416
2019-05-19T07:43:51.077Z,24256
2019-05-19T07:44:17.210Z,24736
2019-05-19T07:45:09.805Z,23648
2019-05-19T07:46:28.328Z,26848
2019-05-19T07:47:20.677Z,30368
2019-05-19T07:47:46.885Z,26336
2019-05-19T07:48:39.385Z,23456
2019-05-19T07:49:57.885Z,22656
2019-05-19T07:50:50.215Z,22464
2019-05-19T07:51:16.358Z,22368
2019-05-19T07:52:08.659Z,21952
2019-05-19T07:53:01.020Z,21600
2019-05-19T07:53:27.160Z,21504
2019-05-19T07:54:20.444Z,21664
2019-05-19T07:54:46.586Z,21632
2019-05-19T07:55:38.911Z,21760
2019-05-19T07:56:31.251Z,21984
2019-05-19T07:56:57.406Z,22112
2019-05-19T07:57:49.704Z,22592
2019-05-19T07:59:08.276Z,23072
2019-05-19T08:00:00.624Z,24320
2019-05-19T08:00:26.804Z,24672
2019-05-19T08:01:19.138Z,24992
2019-05-19T08:02:11.643Z,27264
2019-05-19T08:02:37.774Z,27456
2019-05-19T08:03:30.142Z,30528
2019-05-19T08:04:48.625Z,38976
2019-05-19T08:05:40.973Z,45088
2019-05-19T08:06:07.702Z,49600
2019-05-19T08:06:59.976Z,49440
2019-05-19T08:08:18.565Z,53120
2019-05-19T08:09:11.005Z,52064
2019-05-19T08:09:37.213Z,52864
2019-05-19T08:10:29.605Z,57920
2019-05-19T08:11:48.050Z,55488
2019-05-19T08:12:40.404Z,51680
2019-05-19T08:13:06.584Z,55648
2019-05-19T08:13:58.875Z,75712
2019-05-19T08:14:51.274Z,84800
2019-05-19T08:15:17.510Z,86816
2019-05-19T08:16:09.819Z,88032
2019-05-19T08:17:28.357Z,89120
2019-05-19T08:18:20.701Z,86240
2019-05-19T08:18:46.847Z,86240
2019-05-19T08:19:39.379Z,90944
2019-05-19T08:20:58.206Z,98016
2019-05-19T08:21:50.295Z,92000
2019-05-19T08:22:16.455Z,97760
2019-05-19T08:23:09.837Z,98080
2019-05-19T08:24:29.309Z,92096
2019-05-19T08:24:56.695Z,98336
2019-05-19T08:25:49.028Z,106432
2019-05-19T08:26:41.360Z,104480
2019-05-19T08:27:07.555Z,106496
2019-05-19T08:28:08.132Z,96448
2019-05-19T08:28:27.060Z,68672
2019-05-19T08:29:19.382Z,43392
2019-05-19T08:30:37.886Z,48640
2019-05-19T08:31:30.264Z,48032
2019-05-19T08:31:56.492Z,56576
2019-05-19T08:32:48.804Z,53568
2019-05-19T08:33:41.227Z,75328
2019-05-19T08:34:07.714Z,75936
2019-05-19T08:35:00.146Z,69856
2019-05-19T08:36:18.611Z,78912
2019-05-19T08:37:10.964Z,92352
2019-05-19T08:37:37.124Z,91808
2019-05-19T08:38:29.418Z,81600
2019-05-19T08:39:47.886Z,68608
2019-05-19T08:40:40.229Z,57760
2019-05-19T08:41:06.436Z,64000
2019-05-19T08:41:58.855Z,82816
2019-05-19T08:42:51.255Z,65472
2019-05-19T08:43:17.407Z,80992
2019-05-19T08:44:09.736Z,80096
2019-05-19T08:45:28.296Z,90368
2019-05-19T08:46:20.542Z,90784
2019-05-19T08:46:46.687Z,92608
2019-05-19T08:47:38.994Z,92704
2019-05-19T08:48:31.385Z,82432
2019-05-19T08:48:58.502Z,76864
2019-05-19T08:49:50.955Z,57120
2019-05-19T08:50:17.133Z,42688
2019-05-19T08:51:09.481Z,35136
2019-05-19T08:52:28.002Z,33856
2019-05-19T08:53:20.402Z,28160
2019-05-19T08:53:46.570Z,27808
2019-05-19T08:54:39.921Z,30048
2019-05-19T08:55:58.526Z,26144
2019-05-19T08:56:50.861Z,28640
2019-05-19T08:57:17.075Z,29056
2019-05-19T08:58:09.501Z,30784
2019-05-19T08:59:28.111Z,29760
2019-05-19T09:00:20.466Z,29312
2019-05-19T09:00:46.665Z,27744
2019-05-19T09:01:38.964Z,30624
2019-05-19T09:02:31.256Z,50464
2019-05-19T09:02:57.399Z,57664
2019-05-19T09:03:49.784Z,60960
2019-05-19T09:05:08.332Z,65184
2019-05-19T09:06:00.689Z,68640
2019-05-19T09:06:26.831Z,86784
2019-05-19T09:07:19.175Z,96608
2019-05-19T09:08:11.554Z,99872
2019-05-19T09:08:37.863Z,96928
2019-05-19T09:09:30.257Z,102496
2019-05-19T09:09:56.412Z,102880
2019-05-19T09:10:48.749Z,107008
2019-05-19T09:11:41.073Z,111776
2019-05-19T09:12:07.242Z,110976
2019-05-19T09:12:59.553Z,108064
2019-05-19T09:14:18.011Z,97504
2019-05-19T09:15:10.352Z,97760
2019-05-19T09:15:36.487Z,95328
2019-05-19T09:16:28.789Z,94976
2019-05-19T09:17:21.179Z,91776
2019-05-19T09:17:47.323Z,94208
2019-05-19T09:18:39.619Z,99552
2019-05-19T09:19:58.134Z,92192
2019-05-19T09:20:50.471Z,79264
2019-05-19T09:21:16.633Z,79328
2019-05-19T09:22:09.049Z,79520
2019-05-19T09:23:01.370Z,83040
2019-05-19T09:23:27.516Z,71520
2019-05-19T09:24:29.844Z,69440
2019-05-19T09:24:47.855Z,67840
2019-05-19T09:25:40.182Z,81696
2019-05-19T09:26:58.656Z,89536
2019-05-19T09:27:51.019Z,92256
2019-05-19T09:28:17.166Z,92352
2019-05-19T09:29:09.479Z,97856
2019-05-19T09:30:27.928Z,100640
2019-05-19T09:31:20.325Z,93856
2019-05-19T09:31:46.796Z,87968
2019-05-19T09:32:39.110Z,81440
2019-05-19T09:33:31.473Z,86432
2019-05-19T09:33:57.688Z,89408
2019-05-19T09:34:49.958Z,80672
2019-05-19T09:36:08.443Z,93088
2019-05-19T09:37:00.748Z,97280
2019-05-19T09:37:26.895Z,99776
2019-05-19T09:38:19.263Z,98496
2019-05-19T09:39:11.567Z,92448
2019-05-19T09:39:37.718Z,93184
2019-05-19T09:40:30.066Z,85536
2019-05-19T09:41:48.642Z,79072
2019-05-19T09:42:40.983Z,70464
2019-05-19T09:43:07.132Z,66304
2019-05-19T09:43:59.443Z,95648
2019-05-19T09:45:17.902Z,102656
2019-05-19T09:46:10.207Z,102272
2019-05-19T09:46:36.359Z,102400
2019-05-19T09:47:28.667Z,98720
2019-05-19T09:48:21.005Z,98720
2019-05-19T09:48:47.184Z,98368
2019-05-19T09:49:39.487Z,95360
2019-05-19T09:50:57.980Z,96832
2019-05-19T09:51:50.320Z,95872
2019-05-19T09:52:17.227Z,97408
2019-05-19T09:53:08.880Z,96000
2019-05-19T09:54:01.232Z,97152
2019-05-19T09:54:27.381Z,90944
2019-05-19T09:55:19.762Z,85344
2019-05-19T09:56:38.216Z,97440
2019-05-19T09:57:30.545Z,93408
2019-05-19T09:57:56.706Z,98016
2019-05-19T09:58:49.107Z,100224
2019-05-19T09:59:41.444Z,92768
2019-05-19T10:00:07.595Z,92832
2019-05-19T10:00:59.926Z,79168
2019-05-19T10:02:18.443Z,60608
2019-05-19T10:03:10.772Z,71168
2019-05-19T10:03:36.918Z,73024
2019-05-19T10:04:29.288Z,73120
2019-05-19T10:05:47.827Z,74528
2019-05-19T10:06:40.228Z,67936
2019-05-19T10:07:07.126Z,79744
2019-05-19T10:07:58.852Z,84000
2019-05-19T10:08:51.151Z,81824
2019-05-19T10:09:17.302Z,81728
2019-05-19T10:10:09.689Z,98432
2019-05-19T10:11:28.210Z,101120
2019-05-19T10:12:20.532Z,87392
2019-05-19T10:12:46.676Z,63424
2019-05-19T10:13:38.979Z,33952
2019-05-19T10:14:31.299Z,25856
2019-05-19T10:14:57.443Z,24608
2019-05-19T10:15:49.783Z,27424
2019-05-19T10:17:08.247Z,27552
2019-05-19T10:18:00.564Z,24480
2019-05-19T10:18:26.733Z,26432
2019-05-19T10:19:19.040Z,37248
2019-05-19T10:20:11.373Z,28704
2019-05-19T10:20:37.520Z,30592
2019-05-19T10:21:30.843Z,37536
2019-05-19T10:21:57.044Z,31712
2019-05-19T10:22:49.366Z,58112
2019-05-19T10:24:08.496Z,92832
2019-05-19T10:25:59.885Z,100576
2019-05-19T10:26:27.082Z,103296
2019-05-19T10:27:21.949Z,101600
2019-05-19T10:27:48.036Z,101568
2019-05-19T10:29:08.691Z,97952
2019-05-19T10:30:29.266Z,105568
2019-05-19T10:31:48.415Z,107648
2019-05-19T10:32:41.000Z,99808
2019-05-19T10:33:07.633Z,98496
2019-05-19T10:34:00.534Z,91776
2019-05-19T10:34:26.700Z,74752
2019-05-19T10:35:19.043Z,57152
2019-05-19T10:36:11.417Z,48384
2019-05-19T10:36:37.596Z,35168
2019-05-19T10:37:29.963Z,28736
2019-05-19T10:38:48.466Z,25536
2019-05-19T10:39:40.799Z,29920
2019-05-19T10:40:07.024Z,25856
2019-05-19T10:40:59.325Z,30656
2019-05-19T10:42:17.839Z,26656
2019-05-19T10:43:10.152Z,21632
2019-05-19T10:44:28.602Z,24704
2019-05-19T10:45:21.015Z,26912
2019-05-19T10:45:47.168Z,25696
2019-05-19T10:46:39.494Z,28192
2019-05-19T10:47:57.988Z,38400
2019-05-19T10:48:50.358Z,40768
2019-05-19T10:49:16.539Z,44864
2019-05-19T10:50:08.867Z,58848
2019-05-19T10:51:01.178Z,73792
2019-05-19T10:51:27.345Z,77152
2019-05-19T10:52:19.671Z,83424
2019-05-19T10:53:38.099Z,86784
2019-05-19T10:54:30.423Z,89728
2019-05-19T10:54:56.566Z,89120
2019-05-19T10:55:48.927Z,93152
2019-05-19T10:56:41.232Z,94176
2019-05-19T10:57:07.403Z,98688
2019-05-19T10:57:59.795Z,102784
2019-05-19T10:59:18.307Z,97984
2019-05-19T11:00:10.673Z,105728
2019-05-19T11:00:36.822Z,104640
2019-05-19T11:01:29.153Z,95232
2019-05-19T11:02:21.494Z,84960
2019-05-19T11:02:47.679Z,88864
2019-05-19T11:03:40.029Z,89952
2019-05-19T11:04:58.514Z,89792
2019-05-19T11:05:50.852Z,93120
2019-05-19T11:06:17.034Z,77024
2019-05-19T11:07:09.333Z,36544
2019-05-19T11:08:27.804Z,23552
2019-05-19T11:09:20.204Z,23040
2019-05-19T11:09:46.352Z,23008